Time;durP1;ratioP1;P1;durP2;ratioP2;P2;SDS_P1;SDS_P2;PMS_P1;PMS_P2;Temp;Humidity;BMP_temperature;BMP_pressure;BME280_temperature;BME280_humidity;BME280_pressure;Samples;Min_cycle;Max_cycle;Signal;HPM_P1;HPM_P2
2022/05/18 00:01:44;;;;;;;2.58;1.35;;;22.70;99.90;;;;;;5093371;28;20296;-80
2022/05/18 00:04:11;;;;;;;3.03;1.35;;;22.60;99.90;;;;;;5093916;28;20684;-78
2022/05/18 00:06:38;;;;;;;2.17;1.10;;;22.50;99.90;;;;;;5093376;28;20202;-80
2022/05/18 00:09:05;;;;;;;1.95;1.10;;;22.50;99.90;;;;;;5093871;28;20673;-73
2022/05/18 00:11:33;;;;;;;2.60;2.13;;;22.40;99.90;;;;;;5093393;28;20284;-80
2022/05/18 00:14:00;;;;;;;3.70;1.45;;;22.40;99.90;;;;;;5093513;28;20202;-80
2022/05/18 00:16:28;;;;;;;1.67;1.30;;;22.30;99.90;;;;;;5093369;28;20265;-77
2022/05/18 00:18:56;;;;;;;2.47;1.15;;;22.30;99.90;;;;;;5093495;28;20243;-77
2022/05/18 00:21:23;;;;;;;1.98;1.77;;;22.40;99.90;;;;;;5093671;28;20623;-74
2022/05/18 00:23:50;;;;;;;1.83;1.25;;;22.40;99.90;;;;;;5093946;28;20204;-78
2022/05/18 00:26:17;;;;;;;4.90;1.52;;;22.40;99.90;;;;;;5093460;28;20198;-78
2022/05/18 00:28:46;;;;;;;2.97;1.55;;;22.50;99.90;;;;;;5092963;28;20206;-78
2022/05/18 00:31:15;;;;;;;1.95;1.35;;;22.50;99.90;;;;;;5093364;28;20645;-79
2022/05/18 00:33:42;;;;;;;3.67;1.55;;;22.50;99.90;;;;;;5092790;28;20205;-74
2022/05/18 00:36:09;;;;;;;1.45;1.27;;;22.50;99.90;;;;;;5093456;28;20255;-77
2022/05/18 00:38:36;;;;;;;1.25;1.15;;;22.50;99.90;;;;;;5092721;28;20202;-79
2022/05/18 00:41:03;;;;;;;2.00;1.63;;;22.40;99.90;;;;;;5093298;28;20255;-79
2022/05/18 00:43:40;;;;;;;2.05;1.60;;;22.30;99.90;;;;;;5092604;28;20201;-78
2022/05/18 00:46:11;;;;;;;2.30;1.10;;;22.30;99.90;;;;;;5092997;28;20684;-79
2022/05/18 00:48:39;;;;;;;1.45;1.27;;;22.30;99.90;;;;;;5092341;28;20673;-72
2022/05/18 00:51:11;;;;;;;1.30;1.20;;;22.30;99.90;;;;;;5092832;28;20229;-77
2022/05/18 00:53:42;;;;;;;2.80;1.55;;;22.20;99.90;;;;;;5092776;28;20205;-83
2022/05/18 00:56:13;;;;;;;1.58;0.80;;;22.30;99.90;;;;;;5093279;28;20201;-73
2022/05/18 00:58:43;;;;;;;1.63;1.52;;;22.10;99.90;;;;;;5092764;28;20209;-79
2022/05/18 01:01:12;;;;;;;3.17;1.48;;;22.00;99.90;;;;;;5093335;28;20202;-83
2022/05/18 01:03:44;;;;;;;3.47;1.58;;;22.10;99.90;;;;;;5092738;28;20202;-82
2022/05/18 01:06:20;;;;;;;2.90;1.45;;;22.10;99.90;;;;;;5092977;28;20205;-83
2022/05/18 01:08:51;;;;;;;1.77;1.30;;;22.10;99.90;;;;;;5092490;28;20601;-80
2022/05/18 01:11:19;;;;;;;1.77;1.20;;;22.10;99.90;;;;;;5092325;28;20278;-77
2022/05/18 01:13:46;;;;;;;1.30;1.20;;;22.10;99.90;;;;;;5092356;28;20201;-77
2022/05/18 01:16:15;;;;;;;2.25;2.03;;;22.10;99.90;;;;;;5092600;28;20245;-74
2022/05/18 01:18:43;;;;;;;4.95;2.15;;;22.10;99.90;;;;;;5092122;28;20209;-77
2022/05/18 01:21:10;;;;;;;3.42;1.45;;;22.10;99.90;;;;;;5092359;28;20228;-78
2022/05/18 01:23:52;;;;;;;6.22;1.92;;;22.00;99.90;;;;;;5091943;28;20294;-79
2022/05/18 01:26:21;;;;;;;1.65;1.38;;;22.10;99.90;;;;;;5092288;28;20254;-79
2022/05/18 01:28:54;;;;;;;1.48;1.38;;;22.20;99.90;;;;;;5092176;28;20262;-80
2022/05/18 01:31:42;;;;;;;2.90;1.27;;;22.20;99.90;;;;;;5092395;28;20236;-79
2022/05/18 01:34:09;;;;;;;2.55;1.48;;;22.30;99.90;;;;;;5092002;28;20223;-73
2022/05/18 01:36:36;;;;;;;4.45;1.33;;;22.30;99.90;;;;;;5091985;28;20202;-79
2022/05/18 01:39:04;;;;;;;2.25;1.13;;;22.30;99.90;;;;;;5092063;28;20201;-81
2022/05/18 01:41:38;;;;;;;1.85;1.15;;;22.30;99.90;;;;;;5091486;28;20554;-81
2022/05/18 01:44:06;;;;;;;2.97;1.25;;;22.20;99.90;;;;;;5092073;28;20197;-80
2022/05/18 01:46:33;;;;;;;2.95;1.55;;;22.20;99.90;;;;;;5091574;28;20246;-78
2022/05/18 01:49:00;;;;;;;1.73;1.40;;;22.10;99.90;;;;;;5091464;28;20272;-76
2022/05/18 01:51:32;;;;;;;2.08;1.30;;;22.20;99.90;;;;;;5090960;28;20337;-80
2022/05/18 01:53:59;;;;;;;1.52;1.05;;;22.20;99.90;;;;;;5091877;28;20266;-80
2022/05/18 01:56:26;;;;;;;1.77;1.67;;;22.20;99.90;;;;;;5091034;28;20550;-71
2022/05/18 01:58:53;;;;;;;4.82;1.90;;;22.10;99.90;;;;;;5091995;28;20206;-77
2022/05/18 02:01:22;;;;;;;1.48;1.13;;;22.10;99.90;;;;;;5091860;28;20279;-77
2022/05/18 02:03:49;;;;;;;1.85;1.30;;;22.10;99.90;;;;;;5091668;28;20201;-78
2022/05/18 02:06:17;;;;;;;1.30;1.13;;;22.20;99.90;;;;;;5091525;28;20202;-79
2022/05/18 02:08:44;;;;;;;4.53;1.88;;;22.00;99.90;;;;;;5091295;28;20580;-78
2022/05/18 02:11:12;;;;;;;3.38;1.55;;;22.00;99.90;;;;;;5091325;28;20229;-75
2022/05/18 02:13:39;;;;;;;1.27;1.10;;;21.90;99.90;;;;;;5090901;28;20622;-78
2022/05/18 02:16:06;;;;;;;3.30;1.38;;;21.80;99.90;;;;;;5091711;28;20251;-82
2022/05/18 02:18:35;;;;;;;2.63;1.30;;;21.70;99.90;;;;;;5091689;28;20259;-79
2022/05/18 02:21:04;;;;;;;2.50;1.25;;;21.80;99.90;;;;;;5092011;28;20209;-78
2022/05/18 02:23:31;;;;;;;1.02;0.90;;;21.70;99.90;;;;;;5091409;28;20211;-84
2022/05/18 02:25:58;;;;;;;2.58;1.25;;;21.70;99.90;;;;;;5091697;28;20250;-85
2022/05/18 02:28:25;;;;;;;2.55;1.33;;;21.70;99.90;;;;;;5091141;28;20201;-75
2022/05/18 02:30:52;;;;;;;2.08;1.75;;;21.60;99.90;;;;;;5091414;28;20229;-77
2022/05/18 02:33:19;;;;;;;5.45;1.88;;;21.60;99.90;;;;;;5091595;28;20319;-79
2022/05/18 02:35:48;;;;;;;4.15;2.05;;;21.60;99.90;;;;;;5090962;28;20205;-80
2022/05/18 02:38:15;;;;;;;1.73;1.40;;;21.50;99.90;;;;;;5090657;28;20733;-79
2022/05/18 02:40:42;;;;;;;6.55;2.20;;;21.50;99.90;;;;;;5090742;28;20208;-81
2022/05/18 02:43:09;;;;;;;2.08;1.35;;;21.50;99.90;;;;;;5091070;28;20212;-81
2022/05/18 02:45:36;;;;;;;1.90;1.52;;;21.50;99.90;;;;;;5090947;28;20202;-81
2022/05/18 02:48:05;;;;;;;4.47;1.70;;;21.40;99.90;;;;;;5091073;28;20196;-79
2022/05/18 02:50:33;;;;;;;3.00;1.90;;;21.30;99.90;;;;;;5090005;28;20224;-74
2022/05/18 02:53:01;;;;;;;2.33;1.75;;;21.30;99.90;;;;;;5071745;28;20210;-76
2022/05/18 02:58:12;;;;;;;5.07;1.88;;;21.20;99.90;;;;;;5070794;28;20213;-82
2022/05/18 03:00:40;;;;;;;2.45;1.85;;;21.20;99.90;;;;;;5070305;28;20751;-80
2022/05/18 03:03:07;;;;;;;3.92;2.42;;;21.20;99.90;;;;;;5073840;28;20206;-82
2022/05/18 03:05:34;;;;;;;1.60;1.50;;;21.20;99.90;;;;;;5074433;28;20685;-78
2022/05/18 03:08:03;;;;;;;1.73;1.63;;;21.10;99.90;;;;;;5074383;28;20268;-82
2022/05/18 03:10:29;;;;;;;5.80;2.50;;;21.00;99.90;;;;;;5074176;28;20202;-81
2022/05/18 03:12:56;;;;;;;3.92;2.33;;;21.00;99.90;;;;;;5074846;28;20198;-81
2022/05/18 03:15:24;;;;;;;4.40;1.58;;;20.90;99.90;;;;;;5074608;28;20272;-77
2022/05/18 03:17:53;;;;;;;2.17;1.75;;;21.00;99.90;;;;;;5074788;28;20198;-83
2022/05/18 03:25:56;;;;;;;3.30;1.70;;;20.90;99.90;;;;;;5059151;28;20299;-82
2022/05/18 03:28:23;;;;;;;3.85;1.88;;;20.90;99.90;;;;;;5080191;28;20237;-82
2022/05/18 03:30:50;;;;;;;3.15;1.98;;;20.90;99.90;;;;;;5094513;28;20726;-84
2022/05/18 03:33:17;;;;;;;2.80;1.90;;;20.80;99.90;;;;;;5094997;28;20205;-84
2022/05/18 03:35:44;;;;;;;5.97;2.20;;;20.70;99.90;;;;;;5094121;28;20209;-80
2022/05/18 03:38:13;;;;;;;4.05;1.65;;;20.70;99.90;;;;;;5094179;28;20234;-84
2022/05/18 03:40:40;;;;;;;1.60;1.27;;;20.70;99.90;;;;;;5087071;28;20206;-78
2022/05/18 03:43:07;;;;;;;4.88;2.10;;;20.70;99.90;;;;;;5089362;28;20270;-76
2022/05/18 03:45:34;;;;;;;2.72;1.95;;;20.50;99.90;;;;;;5093407;28;20201;-81
2022/05/18 03:48:01;;;;;;;4.32;2.72;;;20.60;99.90;;;;;;5093950;28;20293;-78
2022/05/18 03:50:30;;;;;;;2.33;1.98;;;20.60;99.90;;;;;;5093008;28;20634;-82
2022/05/18 03:52:58;;;;;;;4.28;2.28;;;20.60;99.90;;;;;;5093854;28;20233;-74
2022/05/18 03:55:27;;;;;;;1.70;1.60;;;20.60;99.90;;;;;;5093564;28;20202;-75
2022/05/18 03:57:54;;;;;;;2.30;1.83;;;20.60;99.90;;;;;;5093772;28;20251;-75
2022/05/18 04:00:22;;;;;;;6.65;2.40;;;20.50;99.90;;;;;;5094052;28;20262;-75
2022/05/18 04:02:49;;;;;;;2.30;1.90;;;20.50;99.90;;;;;;5093944;28;20206;-78
2022/05/18 04:05:18;;;;;;;21.05;2.33;;;20.50;99.90;;;;;;5079913;28;20669;-72
2022/05/18 04:07:45;;;;;;;2.00;1.50;;;20.50;99.90;;;;;;5093357;28;20708;-93
2022/05/18 04:10:12;;;;;;;3.33;2.30;;;20.40;99.90;;;;;;5094075;28;20202;-78
2022/05/18 04:12:40;;;;;;;4.65;1.67;;;20.40;99.90;;;;;;5092952;28;20234;-83
2022/05/18 04:15:08;;;;;;;3.95;2.38;;;20.30;99.90;;;;;;5094147;28;20227;-91
2022/05/18 04:17:35;;;;;;;4.38;2.05;;;20.40;99.90;;;;;;5083857;28;20206;-87
2022/05/18 04:20:03;;;;;;;3.70;1.95;;;20.40;99.90;;;;;;5092488;28;20213;-88
2022/05/18 04:22:31;;;;;;;2.88;1.67;;;20.40;99.90;;;;;;5093575;28;20205;-77
2022/05/18 04:25:01;;;;;;;2.40;1.83;;;20.40;99.90;;;;;;5093920;28;20210;-92
2022/05/18 04:27:29;;;;;;;2.22;1.55;;;20.40;99.90;;;;;;5093382;28;20209;-93
2022/05/18 04:29:57;;;;;;;4.40;2.03;;;20.30;99.90;;;;;;5080283;28;20232;-86
2022/05/18 04:32:25;;;;;;;4.57;2.15;;;20.30;99.90;;;;;;5093979;28;20704;-86
2022/05/18 04:34:52;;;;;;;2.65;1.60;;;20.30;99.90;;;;;;5093753;28;20201;-89
2022/05/18 04:37:19;;;;;;;2.20;1.67;;;20.20;99.90;;;;;;5094503;28;20201;-92
2022/05/18 04:39:47;;;;;;;4.70;1.17;;;20.30;99.90;;;;;;5092870;28;20241;-77
2022/05/18 04:42:14;;;;;;;2.97;2.08;;;20.30;99.90;;;;;;5092583;28;20251;-74
2022/05/18 04:44:42;;;;;;;3.70;1.77;;;20.20;99.90;;;;;;5092686;28;20210;-79
2022/05/18 04:47:10;;;;;;;4.95;2.40;;;20.30;99.90;;;;;;5092848;28;20292;-78
2022/05/18 04:49:37;;;;;;;3.17;2.20;;;20.30;99.90;;;;;;5092175;28;20267;-78
2022/05/18 04:52:07;;;;;;;3.28;2.28;;;20.30;99.90;;;;;;5092422;28;20286;-77
2022/05/18 04:54:35;;;;;;;3.45;2.17;;;20.30;99.90;;;;;;5092798;28;20227;-75
2022/05/18 04:57:02;;;;;;;4.05;2.80;;;20.30;99.90;;;;;;5089142;28;20206;-75
2022/05/18 04:59:29;;;;;;;5.15;2.85;;;20.30;99.90;;;;;;5084084;28;20201;-75
2022/05/18 05:01:56;;;;;;;3.03;2.47;;;20.40;99.90;;;;;;5088289;28;20202;-73
2022/05/18 05:04:25;;;;;;;1.73;1.60;;;20.40;99.90;;;;;;5082046;28;20210;-73
2022/05/18 05:06:51;;;;;;;3.85;2.08;;;20.40;99.90;;;;;;5092291;28;20274;-78
2022/05/18 05:09:22;;;;;;;4.35;3.10;;;20.40;99.90;;;;;;5091744;28;20210;-77
2022/05/18 05:11:49;;;;;;;3.28;2.20;;;20.40;99.90;;;;;;5091646;28;20233;-76
2022/05/18 05:14:16;;;;;;;2.47;2.28;;;20.40;99.90;;;;;;5088474;28;20722;-77
2022/05/18 05:16:43;;;;;;;2.97;2.60;;;20.60;99.90;;;;;;5090862;28;20590;-75
2022/05/18 05:19:10;;;;;;;4.15;2.55;;;20.60;99.90;;;;;;5091720;28;20214;-77
2022/05/18 05:21:42;;;;;;;2.25;1.88;;;20.70;99.90;;;;;;5091338;28;20726;-75
2022/05/18 05:24:10;;;;;;;5.53;2.67;;;20.70;99.90;;;;;;5091317;28;20228;-74
2022/05/18 05:26:37;;;;;;;3.92;3.00;;;20.80;99.90;;;;;;5091108;28;20202;-76
2022/05/18 05:29:04;;;;;;;3.08;1.80;;;20.80;99.90;;;;;;5089536;28;20255;-74
2022/05/18 05:31:31;;;;;;;5.47;2.88;;;20.90;99.90;;;;;;5091087;28;20264;-76
2022/05/18 05:33:59;;;;;;;5.25;2.15;;;20.90;99.90;;;;;;5091308;28;20617;-78
2022/05/18 05:36:28;;;;;;;2.42;2.22;;;21.00;99.90;;;;;;5091167;28;20266;-74
2022/05/18 05:38:56;;;;;;;6.35;3.10;;;21.10;99.90;;;;;;5090764;28;20262;-77
2022/05/18 05:41:24;;;;;;;6.82;2.08;;;21.10;99.90;;;;;;5091727;28;20213;-75
2022/05/18 05:43:51;;;;;;;3.63;2.40;;;21.20;99.90;;;;;;5092084;28;20209;-81
2022/05/18 05:46:18;;;;;;;2.83;2.15;;;21.30;99.90;;;;;;5090995;28;20205;-75
2022/05/18 05:48:46;;;;;;;2.70;1.98;;;21.40;99.90;;;;;;5089757;28;20213;-77
2022/05/18 05:51:15;;;;;;;2.92;1.88;;;21.50;99.90;;;;;;5083456;28;20673;-79
2022/05/18 05:53:44;;;;;;;5.35;2.13;;;21.60;99.90;;;;;;5076829;28;20292;-74
2022/05/18 05:56:13;;;;;;;6.32;2.63;;;21.60;99.90;;;;;;5087879;28;20246;-76
2022/05/18 05:58:43;;;;;;;4.53;2.20;;;21.70;99.90;;;;;;5090532;28;20255;-75
2022/05/18 06:01:12;;;;;;;4.60;2.72;;;21.90;99.90;;;;;;5090113;28;20296;-75
2022/05/18 06:03:40;;;;;;;6.93;1.88;;;22.00;99.90;;;;;;5090664;28;20202;-77
2022/05/18 06:06:08;;;;;;;4.55;2.70;;;22.10;99.90;;;;;;5089319;28;20206;-81
2022/05/18 06:08:35;;;;;;;4.97;3.25;;;22.10;99.90;;;;;;5089042;28;20233;-78
2022/05/18 06:11:05;;;;;;;4.07;2.58;;;22.30;99.90;;;;;;5076516;28;20252;-81
2022/05/18 06:13:33;;;;;;;3.55;2.50;;;22.40;99.90;;;;;;5070272;28;20238;-71
2022/05/18 06:16:01;;;;;;;4.80;2.35;;;22.40;99.90;;;;;;5070109;28;20204;-73
2022/05/18 06:18:29;;;;;;;6.50;2.83;;;22.50;99.90;;;;;;5070978;28;20209;-80
2022/05/18 06:20:57;;;;;;;4.97;2.30;;;22.50;99.90;;;;;;5071008;28;20633;-72
2022/05/18 06:23:24;;;;;;;7.68;1.77;;;22.60;99.90;;;;;;5071214;28;20213;-73
2022/05/18 06:25:51;;;;;;;3.40;2.10;;;22.70;99.90;;;;;;5069734;28;20252;-74
2022/05/18 06:28:18;;;;;;;6.43;1.90;;;22.80;99.90;;;;;;5077126;28;20539;-75
2022/05/18 06:30:46;;;;;;;2.40;1.80;;;22.90;99.90;;;;;;5084481;28;20213;-77
2022/05/18 06:33:13;;;;;;;4.00;2.55;;;22.90;99.90;;;;;;5078515;28;20294;-75
2022/05/18 06:35:40;;;;;;;3.25;2.53;;;22.80;99.90;;;;;;5090474;28;20209;-86
2022/05/18 06:38:12;;;;;;;2.17;1.85;;;22.90;99.90;;;;;;5083976;28;20243;-85
2022/05/18 06:43:24;;;;;;;4.38;2.60;;;23.20;99.90;;;;;;5080408;28;20255;-77
2022/05/18 06:45:53;;;;;;;6.93;2.03;;;23.30;99.90;;;;;;5077769;28;20213;-75
2022/05/18 06:48:19;;;;;;;5.80;2.30;;;23.40;99.90;;;;;;5085634;28;20201;-77
2022/05/18 06:50:47;;;;;;;4.40;1.50;;;23.30;99.90;;;;;;5089948;28;20255;-76
2022/05/18 06:53:14;;;;;;;5.15;2.38;;;23.50;99.90;;;;;;5090185;28;20262;-76
2022/05/18 06:55:41;;;;;;;5.80;1.75;;;23.50;99.90;;;;;;5092362;28;20209;-75
2022/05/18 06:58:08;;;;;;;4.50;1.88;;;23.60;99.90;;;;;;5087451;28;20209;-74
2022/05/18 07:00:35;;;;;;;4.05;1.52;;;23.60;99.90;;;;;;5089170;28;20276;-76
2022/05/18 07:03:04;;;;;;;3.33;2.25;;;23.60;99.90;;;;;;5090211;28;20614;-76
2022/05/18 07:05:32;;;;;;;4.18;2.55;;;23.70;99.90;;;;;;5091836;28;20209;-73
2022/05/18 07:07:59;;;;;;;4.47;2.35;;;23.70;99.90;;;;;;5093121;28;20246;-77
2022/05/18 07:10:27;;;;;;;2.88;1.58;;;23.90;99.90;;;;;;5089650;28;20742;-73
2022/05/18 07:12:54;;;;;;;8.60;2.40;;;23.70;99.90;;;;;;5080071;28;20278;-72
2022/05/18 07:15:21;;;;;;;3.95;1.80;;;23.90;99.90;;;;;;5089931;28;20231;-76
2022/05/18 07:17:48;;;;;;;7.28;2.55;;;24.00;99.90;;;;;;5095986;28;20676;-75
2022/05/18 07:20:17;;;;;;;4.70;2.10;;;24.10;99.90;;;;;;5102699;28;20258;-74
2022/05/18 07:22:44;;;;;;;5.63;1.98;;;24.10;99.90;;;;;;5094992;28;20214;-75
2022/05/18 07:25:11;;;;;;;3.90;2.88;;;24.20;99.90;;;;;;5090907;28;20270;-75
2022/05/18 07:27:39;;;;;;;3.45;2.35;;;24.30;99.90;;;;;;5091046;28;20201;-76
2022/05/18 07:30:08;;;;;;;2.95;2.35;;;24.30;99.90;;;;;;5094847;28;20210;-77
2022/05/18 07:32:35;;;;;;;8.50;2.67;;;24.20;99.90;;;;;;5089077;28;20282;-78
2022/05/18 07:35:04;;;;;;;2.95;2.10;;;24.10;99.90;;;;;;5088539;28;20270;-77
2022/05/18 07:37:33;;;;;;;4.55;2.65;;;23.90;99.90;;;;;;5089605;28;20734;-77
2022/05/18 07:39:59;;;;;;;4.90;2.83;;;23.70;99.90;;;;;;5090469;28;20595;-78
2022/05/18 07:42:27;;;;;;;2.83;2.50;;;24.10;99.90;;;;;;5089750;28;20227;-77
2022/05/18 07:44:53;;;;;;;5.50;2.33;;;24.20;99.90;;;;;;5090552;28;20669;-81
2022/05/18 07:47:28;;;;;;;5.65;2.67;;;24.20;99.90;;;;;;5090610;28;20210;-77
2022/05/18 07:49:55;;;;;;;6.68;3.58;;;24.30;99.90;;;;;;5088637;28;20283;-75
2022/05/18 07:52:22;;;;;;;7.85;3.10;;;24.50;99.90;;;;;;5090095;28;20282;-81
2022/05/18 07:54:51;;;;;;;3.58;2.83;;;24.50;99.90;;;;;;5093461;28;20210;-78
2022/05/18 07:57:18;;;;;;;3.88;2.40;;;24.50;99.90;;;;;;5091602;28;20244;-78
2022/05/18 07:59:46;;;;;;;2.85;2.10;;;24.70;99.90;;;;;;5083177;28;20205;-78
2022/05/18 08:02:13;;;;;;;5.30;3.08;;;24.90;99.90;;;;;;5083483;28;20272;-80
2022/05/18 08:04:40;;;;;;;5.00;3.20;;;24.80;99.90;;;;;;5074975;28;20202;-76
2022/05/18 08:07:07;;;;;;;10.13;3.13;;;24.90;99.90;;;;;;5080849;28;20206;-78
2022/05/18 08:15:05;;;;;;;4.03;1.90;;;25.10;99.90;;;;;;5081361;28;20309;-77
2022/05/18 08:15:23;;;;;;;4.00;2.78;;;25.40;99.90;;;;;;5030349;28;20638;-74
2022/05/18 08:17:51;;;;;;;3.63;2.00;;;25.20;99.90;;;;;;5030520;28;20216;-72
2022/05/18 08:20:19;;;;;;;4.80;1.88;;;25.50;99.90;;;;;;5049704;28;20268;-73
2022/05/18 08:22:46;;;;;;;3.45;1.77;;;25.70;99.90;;;;;;5082200;28;20201;-77
2022/05/18 08:25:15;;;;;;;3.72;2.42;;;25.70;99.90;;;;;;5079758;28;20207;-71
2022/05/18 08:27:45;;;;;;;1.88;1.65;;;25.70;99.90;;;;;;5082475;28;20252;-75
2022/05/18 08:30:14;;;;;;;3.00;1.92;;;25.80;99.90;;;;;;5092489;28;20247;-71
2022/05/18 08:32:42;;;;;;;3.30;1.77;;;26.20;99.90;;;;;;5092020;28;20662;-72
2022/05/18 08:35:10;;;;;;;2.78;1.55;;;25.70;99.90;;;;;;5088211;28;20268;-72
2022/05/18 08:37:42;;;;;;;2.63;2.35;;;25.70;99.90;;;;;;5087540;28;20624;-73
2022/05/18 08:40:15;;;;;;;3.45;1.83;;;25.80;99.90;;;;;;5081571;28;20205;-77
2022/05/18 08:43:09;;;;;;;5.53;1.85;;;25.50;99.90;;;;;;5090445;28;20218;-71
2022/05/18 08:45:41;;;;;;;2.45;1.77;;;25.40;99.90;;;;;;5082685;28;20242;-72
2022/05/18 08:48:20;;;;;;;6.18;1.90;;;26.10;99.90;;;;;;5084926;28;20205;-76
2022/05/18 08:50:48;;;;;;;2.38;2.17;;;26.20;99.90;;;;;;5080529;28;20233;-75
2022/05/18 08:53:32;;;;;;;6.18;1.90;;;26.60;99.90;;;;;;5081838;28;20768;-73
2022/05/18 08:56:08;;;;;;;2.03;1.90;;;26.80;99.90;;;;;;5072384;28;20237;-73
2022/05/18 08:58:42;;;;;;;3.05;1.80;;;26.70;99.90;;;;;;5082078;28;20587;-75
2022/05/18 09:01:14;;;;;;;5.82;2.47;;;26.70;99.90;;;;;;5077907;28;20213;-74
2022/05/18 09:03:45;;;;;;;2.53;2.00;;;26.80;99.90;;;;;;5079811;28;20198;-73
2022/05/18 09:06:22;;;;;;;2.90;2.42;;;27.40;99.90;;;;;;5083846;28;20216;-75
2022/05/18 09:11:34;;;;;;;2.50;1.83;;;27.50;99.90;;;;;;5080566;28;20206;-72
2022/05/18 09:14:02;;;;;;;2.90;2.33;;;27.70;99.90;;;;;;5092035;28;20241;-74
2022/05/18 09:16:36;;;;;;;2.75;2.25;;;28.00;99.90;;;;;;5092128;28;20251;-74
2022/05/18 09:19:09;;;;;;;2.70;2.05;;;28.00;99.90;;;;;;5079728;28;20274;-77
2022/05/18 09:21:43;;;;;;;2.22;1.50;;;28.10;99.90;;;;;;5081661;28;20210;-76
2022/05/18 09:24:25;;;;;;;2.80;2.60;;;28.10;99.90;;;;;;5090621;28;20569;-80
2022/05/18 09:27:14;;;;;;;4.90;1.80;;;29.00;99.90;;;;;;5092574;28;20202;-91
2022/05/18 09:29:49;;;;;;;2.85;1.85;;;31.00;99.90;;;;;;5092132;28;20217;-86
2022/05/18 09:32:38;;;;;;;5.18;2.25;;;31.60;99.90;;;;;;5091621;28;20250;-76
2022/05/18 09:35:21;;;;;;;2.78;2.00;;;30.20;99.90;;;;;;5091780;28;20676;-77
2022/05/18 09:37:51;;;;;;;3.42;2.13;;;30.50;99.90;;;;;;5091320;28;20211;-74
2022/05/18 09:40:20;;;;;;;2.42;2.10;;;32.70;99.90;;;;;;5091639;28;20231;-75
2022/05/18 09:42:52;;;;;;;2.00;1.90;;;33.40;99.90;;;;;;5090369;28;20254;-77
2022/05/18 09:45:24;;;;;;;4.95;1.63;;;35.20;99.90;;;;;;5092073;28;20615;-75
2022/05/18 09:47:56;;;;;;;4.05;1.70;;;37.30;99.90;;;;;;5092688;28;20200;-90
2022/05/18 09:50:23;;;;;;;2.88;2.05;;;35.70;99.90;;;;;;5092800;28;20303;-93
2022/05/18 09:52:52;;;;;;;2.15;1.95;;;35.00;99.90;;;;;;5092348;28;20609;-76
2022/05/18 09:55:22;;;;;;;1.98;1.67;;;33.50;99.90;;;;;;5092163;28;20250;-75
2022/05/18 09:57:56;;;;;;;2.75;1.70;;;34.20;99.90;;;;;;5073256;28;20205;-76
2022/05/18 10:00:26;;;;;;;2.80;2.55;;;33.80;99.90;;;;;;5071767;28;20275;-75
2022/05/18 10:08:31;;;;;;;4.30;2.38;;;36.60;99.90;;;;;;5070699;28;20208;-78
2022/05/18 10:11:01;;;;;;;4.47;1.73;;;35.60;99.90;;;;;;5070570;28;20201;-79
2022/05/18 10:13:32;;;;;;;4.40;2.08;;;35.40;99.90;;;;;;5070624;28;20777;-75
2022/05/18 10:16:14;;;;;;;3.90;2.83;;;37.00;99.90;;;;;;5071129;28;20211;-76
2022/05/18 10:18:45;;;;;;;5.93;2.20;;;36.80;99.90;;;;;;5070635;28;20871;-75
2022/05/18 10:21:34;;;;;;;4.00;1.90;;;37.00;99.90;;;;;;5071110;28;20251;-78
2022/05/18 10:24:05;;;;;;;3.42;2.17;;;36.50;99.90;;;;;;5071487;28;20201;-77
2022/05/18 10:26:34;;;;;;;3.70;1.95;;;37.20;99.90;;;;;;5083828;28;20204;-87
2022/05/18 10:29:07;;;;;;;4.35;3.13;;;38.00;99.90;;;;;;5082071;28;20205;-83
2022/05/18 10:31:38;;;;;;;2.80;2.03;;;36.50;99.90;;;;;;5085731;28;20258;-85
2022/05/18 10:34:18;;;;;;;8.27;2.55;;;33.60;99.90;;;;;;5090827;28;20221;-84
2022/05/18 10:36:48;;;;;;;4.63;2.10;;;31.10;99.90;;;;;;5090664;28;20208;-91
2022/05/18 10:39:31;;;;;;;3.85;2.13;;;30.60;99.90;;;;;;5090808;28;20680;-78
2022/05/18 10:41:58;;;;;;;2.15;2.00;;;29.90;99.90;;;;;;5091002;28;20289;-84
2022/05/18 10:44:34;;;;;;;4.10;2.58;;;29.40;99.90;;;;;;5090748;28;20254;-81
2022/05/18 10:47:16;;;;;;;4.07;2.53;;;30.10;99.90;;;;;;5091303;28;20675;-88
2022/05/18 10:49:44;;;;;;;3.78;2.75;;;30.20;99.90;;;;;;5090428;28;20222;-85
2022/05/18 10:52:13;;;;;;;3.50;2.35;;;30.30;99.90;;;;;;5090798;28;20216;-83
2022/05/18 10:54:51;;;;;;;4.30;2.15;;;30.30;99.90;;;;;;5088951;28;20251;-81
2022/05/18 10:57:20;;;;;;;6.18;2.65;;;30.30;99.90;;;;;;5080201;28;20562;-85
2022/05/18 10:59:52;;;;;;;6.05;2.15;;;30.00;99.90;;;;;;5090679;28;20205;-78
2022/05/18 11:02:29;;;;;;;5.00;3.47;;;30.30;99.90;;;;;;5090786;28;20197;-79
2022/05/18 11:05:01;;;;;;;5.38;3.08;;;30.50;99.90;;;;;;5090344;28;20703;-79
2022/05/18 11:07:30;;;;;;;4.13;2.50;;;30.70;99.90;;;;;;5090025;28;20741;-83
2022/05/18 11:09:58;;;;;;;2.67;2.28;;;30.50;99.90;;;;;;5074826;28;20259;-79
2022/05/18 11:12:46;;;;;;;4.28;2.80;;;30.50;99.90;;;;;;5070168;28;20242;-76
2022/05/18 11:15:21;;;;;;;3.08;2.78;;;30.50;99.90;;;;;;5068496;28;20237;-79
2022/05/18 11:18:07;;;;;;;2.80;1.98;;;30.90;99.90;;;;;;5069701;28;20656;-80
2022/05/18 11:20:44;;;;;;;3.03;2.38;;;30.90;99.90;;;;;;5069966;28;20251;-82
2022/05/18 11:23:27;;;;;;;3.92;2.85;;;30.90;99.90;;;;;;5071881;28;20205;-81
2022/05/18 11:26:03;;;;;;;2.58;1.98;;;30.90;99.90;;;;;;5074331;28;20201;-77
2022/05/18 11:28:38;;;;;;;4.75;2.17;;;31.10;99.90;;;;;;5073788;28;20209;-79
2022/05/18 11:31:22;;;;;;;3.20;2.30;;;31.20;99.90;;;;;;5074187;28;20296;-79
2022/05/18 11:34:08;;;;;;;2.75;2.55;;;31.30;99.90;;;;;;5074108;28;20237;-81
2022/05/18 11:36:42;;;;;;;6.65;3.28;;;31.20;99.90;;;;;;5075967;28;20630;-79
2022/05/18 11:39:17;;;;;;;4.78;2.53;;;31.40;99.90;;;;;;5094048;28;20213;-82
2022/05/18 11:42:08;;;;;;;3.17;2.63;;;31.40;99.90;;;;;;5093929;28;20257;-84
2022/05/18 11:44:42;;;;;;;2.90;2.60;;;31.70;99.90;;;;;;5093933;28;20569;-82
2022/05/18 11:47:25;;;;;;;8.90;4.00;;;31.70;99.90;;;;;;5094396;28;20205;-80
2022/05/18 11:50:05;;;;;;;3.40;2.80;;;31.70;99.90;;;;;;5094263;28;20209;-81
2022/05/18 11:52:46;;;;;;;3.33;2.35;;;31.90;99.90;;;;;;5093840;28;20246;-80
2022/05/18 11:55:22;;;;;;;3.70;3.03;;;32.10;99.90;;;;;;5094016;28;21080;-78
2022/05/18 11:58:02;;;;;;;4.80;2.92;;;32.00;99.90;;;;;;5085501;28;20618;-80
2022/05/18 12:00:53;;;;;;;3.78;3.05;;;31.60;99.90;;;;;;5087557;28;20854;-81
2022/05/18 12:03:41;;;;;;;7.13;3.45;;;31.70;99.90;;;;;;5093732;28;20642;-78
2022/05/18 12:06:33;;;;;;;5.03;2.95;;;31.60;99.90;;;;;;5091905;28;20201;-81
2022/05/18 12:09:25;;;;;;;2.78;2.30;;;31.70;99.90;;;;;;5093487;28;20283;-79
2022/05/18 12:12:03;;;;;;;3.83;2.78;;;32.20;99.90;;;;;;5093915;28;20205;-81
2022/05/18 12:14:38;;;;;;;10.57;2.75;;;32.30;99.90;;;;;;5092633;28;20586;-77
2022/05/18 12:17:08;;;;;;;5.15;2.88;;;32.60;99.90;;;;;;5092190;28;20208;-75
2022/05/18 12:19:44;;;;;;;4.55;3.33;;;32.90;99.90;;;;;;5092047;28;20265;-75
2022/05/18 12:22:15;;;;;;;4.15;2.58;;;32.70;99.90;;;;;;5091705;28;20200;-75
2022/05/18 12:24:45;;;;;;;4.40;2.90;;;32.40;99.90;;;;;;5091241;28;20204;-74
2022/05/18 12:27:15;;;;;;;8.07;3.00;;;32.60;99.90;;;;;;5091297;28;20741;-74
2022/05/18 12:29:43;;;;;;;8.15;3.40;;;32.40;99.90;;;;;;5091124;28;20777;-74
2022/05/18 12:32:12;;;;;;;4.63;2.67;;;32.40;99.90;;;;;;5091542;28;20201;-76
2022/05/18 12:34:44;;;;;;;6.35;3.40;;;32.60;99.90;;;;;;5090339;28;20768;-74
2022/05/18 12:37:31;;;;;;;5.07;3.10;;;32.80;99.90;;;;;;5092755;28;20197;-74
2022/05/18 12:40:30;;;;;;;3.95;2.65;;;32.60;99.90;;;;;;5093415;28;20201;-75
2022/05/18 12:43:01;;;;;;;3.55;2.60;;;32.90;99.90;;;;;;5093232;28;20207;-75
2022/05/18 12:45:37;;;;;;;2.97;2.40;;;32.90;99.90;;;;;;5092872;28;20250;-74
2022/05/18 12:48:14;;;;;;;6.07;3.10;;;32.90;99.90;;;;;;5092913;28;20249;-74
2022/05/18 12:50:45;;;;;;;4.85;2.38;;;33.20;99.90;;;;;;5092449;28;20573;-75
2022/05/18 12:53:18;;;;;;;2.95;2.53;;;32.90;99.90;;;;;;5093040;28;20265;-74
2022/05/18 12:55:58;;;;;;;3.13;2.75;;;33.00;99.90;;;;;;5072289;28;20233;-74
2022/05/18 12:58:31;;;;;;;3.78;3.13;;;32.80;99.90;;;;;;5089139;28;20204;-73
2022/05/18 13:01:10;;;;;;;3.05;2.40;;;32.80;99.90;;;;;;5092392;28;20565;-74
2022/05/18 13:04:00;;;;;;;5.95;2.47;;;32.90;99.90;;;;;;5091803;28;20201;-74
2022/05/18 13:06:48;;;;;;;5.20;2.83;;;32.70;99.90;;;;;;5092014;28;20274;-73
2022/05/18 13:09:34;;;;;;;4.32;2.83;;;32.60;99.90;;;;;;5092629;28;20208;-76
2022/05/18 13:12:28;;;;;;;2.17;1.98;;;32.50;99.90;;;;;;5092262;28;20205;-76
2022/05/18 13:15:02;;;;;;;4.85;3.13;;;32.80;99.90;;;;;;5092173;28;20228;-76
2022/05/18 13:17:48;;;;;;;4.40;2.30;;;33.10;99.90;;;;;;5091621;28;20196;-74
2022/05/18 13:20:47;;;;;;;5.35;2.80;;;33.00;99.90;;;;;;5092179;28;20333;-74
2022/05/18 13:23:25;;;;;;;6.25;3.45;;;33.20;99.90;;;;;;5091885;28;20292;-74
2022/05/18 13:25:59;;;;;;;3.65;2.80;;;33.20;99.90;;;;;;5092079;28;20654;-76
2022/05/18 13:28:29;;;;;;;3.22;2.42;;;33.20;99.90;;;;;;5091257;28;20257;-75